Time;durP1;ratioP1;P1;durP2;ratioP2;P2;SDS_P1;SDS_P2;PMS_P1;PMS_P2;Temp;Humidity;BMP_temperature;BMP_pressure;BME280_temperature;BME280_humidity;BME280_pressure;Samples;Min_cycle;Max_cycle;Signal;HPM_P1;HPM_P2
2023/09/03 02:15:05;;;;;;;0.60;0.10;;;20.20;99.90;;;;;;5172767;23;20532;-77
2023/09/03 02:17:33;;;;;;;0.60;0.10;;;20.10;99.90;;;;;;4920538;29;20468;-77
2023/09/03 02:20:01;;;;;;;0.97;0.73;;;20.10;99.90;;;;;;4921117;29;20499;-75
2023/09/03 02:22:29;;;;;;;0.60;0.17;;;19.90;99.90;;;;;;4920820;29;20514;-76
2023/09/03 02:24:57;;;;;;;0.60;0.10;;;19.90;99.90;;;;;;4920896;29;20477;-77
2023/09/03 02:27:25;;;;;;;0.60;0.10;;;19.90;99.90;;;;;;4921081;29;20541;-77
2023/09/03 02:29:53;;;;;;;0.60;0.10;;;19.90;99.90;;;;;;4921390;29;20476;-76
2023/09/03 02:32:22;;;;;;;0.60;0.10;;;19.90;99.90;;;;;;4920588;29;20476;-76
2023/09/03 02:34:50;;;;;;;0.60;0.10;;;20.00;99.90;;;;;;4908569;29;20471;-77
2023/09/03 02:37:18;;;;;;;0.60;0.10;;;19.90;99.90;;;;;;4917827;29;20458;-75
2023/09/03 02:39:46;;;;;;;0.60;0.10;;;19.90;99.90;;;;;;4918286;29;20483;-75
2023/09/03 02:42:14;;;;;;;0.60;0.20;;;19.90;99.90;;;;;;4919120;29;20482;-76
2023/09/03 02:44:42;;;;;;;0.60;0.10;;;19.90;99.90;;;;;;4919123;29;20472;-76
2023/09/03 02:47:10;;;;;;;0.60;0.10;;;19.90;99.90;;;;;;4918083;29;20455;-76
2023/09/03 02:49:39;;;;;;;0.60;0.20;;;19.90;99.90;;;;;;4917754;29;20491;-76
2023/09/03 02:52:07;;;;;;;0.60;0.10;;;20.00;99.90;;;;;;4917230;29;20532;-76
2023/09/03 02:54:35;;;;;;;0.60;0.10;;;19.90;99.90;;;;;;4914386;29;20482;-76
2023/09/03 02:57:03;;;;;;;0.60;0.20;;;19.90;99.90;;;;;;4911100;29;21081;-76
2023/09/03 02:59:32;;;;;;;0.60;0.10;;;19.90;99.90;;;;;;4902555;29;20492;-76
2023/09/03 03:02:00;;;;;;;0.60;0.10;;;;;;;;;;4899454;29;20461;-77
2023/09/03 03:04:28;;;;;;;0.60;0.20;;;19.90;99.90;;;;;;4904134;29;20480;-77
2023/09/03 03:06:57;;;;;;;0.60;0.17;;;19.80;99.90;;;;;;4908415;29;20954;-75
2023/09/03 03:09:26;;;;;;;0.60;0.10;;;;;;;;;;4922921;29;20968;-77
2023/09/03 03:11:54;;;;;;;0.60;0.20;;;19.70;99.90;;;;;;4919044;29;20448;-75
2023/09/03 03:14:22;;;;;;;0.60;0.20;;;;;;;;;;4917605;29;20489;-75
2023/09/03 03:16:50;;;;;;;0.80;0.73;;;19.70;99.90;;;;;;4916327;29;20534;-76
2023/09/03 03:19:18;;;;;;;0.60;0.20;;;19.60;99.90;;;;;;4907841;29;20491;-77
2023/09/03 03:21:45;;;;;;;0.60;0.20;;;19.60;99.90;;;;;;4917018;29;20447;-77
2023/09/03 03:24:15;;;;;;;0.60;0.10;;;19.60;99.90;;;;;;4916987;29;20474;-76
2023/09/03 03:26:42;;;;;;;0.60;0.20;;;19.60;99.90;;;;;;4917087;29;20877;-75
2023/09/03 03:29:11;;;;;;;0.60;0.10;;;19.60;99.90;;;;;;4916283;29;20452;-75
2023/09/03 03:31:38;;;;;;;0.60;0.10;;;19.60;99.90;;;;;;4914200;29;20555;-76
2023/09/03 03:34:06;;;;;;;0.60;0.10;;;19.60;99.90;;;;;;4911112;29;20471;-76
2023/09/03 03:36:34;;;;;;;0.60;0.10;;;19.70;99.90;;;;;;4917045;29;20545;-76
2023/09/03 03:39:02;;;;;;;0.60;0.10;;;18.30;99.90;;;;;;4916248;29;20480;-76
2023/09/03 03:41:32;;;;;;;0.60;0.10;;;19.70;99.90;;;;;;4916713;29;20510;-76
2023/09/03 03:44:00;;;;;;;0.60;0.10;;;19.70;99.90;;;;;;4916449;29;20530;-77
2023/09/03 03:46:28;;;;;;;0.60;0.10;;;19.60;99.90;;;;;;4916829;29;20503;-77
2023/09/03 03:48:56;;;;;;;0.60;0.10;;;19.60;99.90;;;;;;4909322;29;20966;-77
2023/09/03 03:51:24;;;;;;;0.60;0.10;;;19.60;99.90;;;;;;4897797;29;20578;-76
2023/09/03 03:53:52;;;;;;;0.60;0.20;;;19.60;99.90;;;;;;4899043;29;20558;-76
2023/09/03 03:56:20;;;;;;;0.60;0.17;;;19.60;99.90;;;;;;4912987;29;20458;-72
2023/09/03 03:58:49;;;;;;;0.60;0.10;;;19.60;99.90;;;;;;4910670;29;20480;-71
2023/09/03 04:01:18;;;;;;;0.60;0.10;;;19.60;99.90;;;;;;4898003;29;20944;-72
2023/09/03 04:03:47;;;;;;;1.27;0.50;;;19.70;99.90;;;;;;4898505;29;20558;-80
2023/09/03 04:06:15;;;;;;;0.70;0.40;;;19.70;99.90;;;;;;4897081;29;20451;-77
2023/09/03 04:08:44;;;;;;;1.37;0.70;;;19.70;99.90;;;;;;4914900;29;20544;-77
2023/09/03 04:11:13;;;;;;;0.60;0.10;;;19.70;99.90;;;;;;4915580;29;20454;-76
2023/09/03 04:13:42;;;;;;;0.60;0.10;;;19.60;99.90;;;;;;4915351;29;20503;-76
2023/09/03 04:16:13;;;;;;;0.60;0.10;;;19.60;99.90;;;;;;4909352;29;20545;-76
2023/09/03 04:18:42;;;;;;;0.60;0.10;;;19.50;99.90;;;;;;4901211;29;20488;-76
2023/09/03 04:21:10;;;;;;;0.60;0.10;;;19.50;99.90;;;;;;4896606;29;20454;-76
2023/09/03 04:23:38;;;;;;;0.87;0.87;;;19.50;99.90;;;;;;4896508;29;20563;-75
2023/09/03 04:26:06;;;;;;;0.60;0.33;;;19.50;99.90;;;;;;4896795;29;20445;-76
2023/09/03 04:28:33;;;;;;;0.60;0.10;;;19.50;99.90;;;;;;4910283;29;20538;-76
2023/09/03 04:31:04;;;;;;;0.60;0.10;;;19.50;99.90;;;;;;4914604;29;20789;-77
2023/09/03 04:33:34;;;;;;;0.97;0.20;;;19.60;99.90;;;;;;4914881;29;20451;-75
2023/09/03 04:36:03;;;;;;;0.60;0.10;;;19.60;99.90;;;;;;4915362;29;20487;-75
2023/09/03 04:38:31;;;;;;;0.60;0.20;;;19.50;99.90;;;;;;4915064;29;20544;-75
2023/09/03 04:41:04;;;;;;;0.70;0.70;;;19.40;99.90;;;;;;4914066;29;20464;-75
2023/09/03 04:43:32;;;;;;;0.60;0.10;;;19.30;99.90;;;;;;4915237;29;20450;-76
2023/09/03 04:46:00;;;;;;;0.60;0.17;;;19.30;99.90;;;;;;4915342;29;20536;-76
2023/09/03 04:48:28;;;;;;;3.40;3.10;;;19.30;99.90;;;;;;4914944;29;20456;-76
2023/09/03 04:51:03;;;;;;;0.60;0.10;;;19.30;99.90;;;;;;4914337;29;20494;-75
2023/09/03 04:53:31;;;;;;;0.60;0.10;;;19.30;99.90;;;;;;4899782;29;20948;-76
2023/09/03 04:55:59;;;;;;;0.70;0.40;;;19.30;99.90;;;;;;4896145;29;20456;-77
2023/09/03 04:58:27;;;;;;;0.60;0.10;;;19.30;99.90;;;;;;4896826;29;20445;-78
2023/09/03 05:00:55;;;;;;;0.60;0.10;;;19.30;99.90;;;;;;4909668;29;21084;-76
2023/09/03 05:03:23;;;;;;;0.60;0.10;;;;;;;;;;4895657;29;20946;-76
2023/09/03 05:05:51;;;;;;;0.60;0.10;;;19.20;99.90;;;;;;4898828;29;20511;-76
2023/09/03 05:08:20;;;;;;;0.60;0.10;;;19.20;99.90;;;;;;4914847;29;20447;-77
2023/09/03 05:10:49;;;;;;;0.60;0.10;;;19.20;99.90;;;;;;4913647;29;20462;-76
2023/09/03 05:13:17;;;;;;;0.60;0.10;;;19.20;99.90;;;;;;4914298;29;20543;-76
2023/09/03 05:15:45;;;;;;;0.60;0.10;;;19.20;99.90;;;;;;4913448;29;20519;-75
2023/09/03 05:18:12;;;;;;;0.60;0.10;;;19.30;99.90;;;;;;4914245;29;20520;-76
2023/09/03 05:20:40;;;;;;;0.60;0.10;;;19.30;99.90;;;;;;4914462;29;20848;-76
2023/09/03 05:23:08;;;;;;;0.60;0.10;;;19.30;99.90;;;;;;4907918;29;20488;-77
2023/09/03 05:25:38;;;;;;;0.60;0.10;;;19.30;99.90;;;;;;4895755;29;20476;-76
2023/09/03 05:28:06;;;;;;;0.60;0.20;;;19.30;99.90;;;;;;4896090;29;20546;-76
2023/09/03 05:30:35;;;;;;;0.60;0.10;;;19.30;99.90;;;;;;4895562;29;21158;-76
2023/09/03 05:33:03;;;;;;;0.60;0.10;;;19.30;99.90;;;;;;4896169;29;20455;-75
2023/09/03 05:35:34;;;;;;;0.60;0.10;;;19.30;99.90;;;;;;4904532;29;20475;-76
2023/09/03 05:38:02;;;;;;;0.60;0.10;;;19.40;99.90;;;;;;4914315;29;20460;-75
2023/09/03 05:40:30;;;;;;;0.60;0.20;;;19.30;99.90;;;;;;4914571;29;20491;-75
2023/09/03 05:42:59;;;;;;;0.60;0.10;;;19.30;99.90;;;;;;4913860;29;20490;-75
2023/09/03 05:45:27;;;;;;;0.60;0.10;;;19.40;99.90;;;;;;4914462;29;20496;-76
2023/09/03 05:47:55;;;;;;;0.60;0.10;;;19.40;99.90;;;;;;4912706;29;20996;-76
2023/09/03 05:50:23;;;;;;;0.60;0.10;;;19.40;99.90;;;;;;4914049;29;20440;-76
2023/09/03 05:52:51;;;;;;;0.60;0.10;;;19.40;99.90;;;;;;4914392;29;20451;-76
2023/09/03 05:55:19;;;;;;;0.60;0.10;;;19.40;99.90;;;;;;4914271;29;20515;-77
2023/09/03 05:57:47;;;;;;;0.60;0.10;;;19.50;99.90;;;;;;4914158;29;20476;-76
2023/09/03 06:00:17;;;;;;;0.60;0.10;;;19.60;99.90;;;;;;4913329;29;21007;-76
2023/09/03 06:02:44;;;;;;;0.60;0.10;;;19.60;99.90;;;;;;4914454;29;20448;-76
2023/09/03 06:05:13;;;;;;;0.60;0.13;;;19.70;99.90;;;;;;4914381;29;20526;-75
2023/09/03 06:07:41;;;;;;;0.60;0.13;;;19.70;99.90;;;;;;4914263;29;20483;-75
2023/09/03 06:10:09;;;;;;;0.70;0.50;;;19.70;99.90;;;;;;4914164;29;20494;-77
2023/09/03 06:12:37;;;;;;;0.60;0.10;;;21.90;99.90;;;;;;4917546;29;20522;-77
2023/09/03 06:15:06;;;;;;;2.37;2.27;;;19.70;99.90;;;;;;4912284;29;20489;-76
2023/09/03 06:17:35;;;;;;;0.60;0.10;;;19.70;99.90;;;;;;4905144;29;20535;-77
2023/09/03 06:20:04;;;;;;;0.70;0.40;;;19.70;99.90;;;;;;4918025;29;21185;-76
2023/09/03 06:22:32;;;;;;;0.60;0.30;;;19.60;99.90;;;;;;4917606;29;20492;-76
2023/09/03 06:24:59;;;;;;;0.60;0.10;;;19.70;99.90;;;;;;4917275;29;20503;-76
2023/09/03 06:27:29;;;;;;;0.70;0.40;;;19.70;99.90;;;;;;4917884;29;20548;-76
2023/09/03 06:29:57;;;;;;;1.17;0.97;;;19.70;99.90;;;;;;4921028;29;20593;-76
2023/09/03 06:32:25;;;;;;;0.60;0.17;;;19.80;99.90;;;;;;4922722;29;20483;-78
2023/09/03 06:34:55;;;;;;;0.60;0.10;;;19.80;99.90;;;;;;4921335;29;20547;-76
2023/09/03 06:37:25;;;;;;;0.60;0.20;;;19.90;99.90;;;;;;4918757;29;20486;-73
2023/09/03 06:39:53;;;;;;;0.60;0.20;;;19.90;99.90;;;;;;4917900;29;20857;-77
2023/09/03 06:42:22;;;;;;;1.67;1.33;;;;;;;;;;4903681;29;20495;-77
2023/09/03 06:44:50;;;;;;;0.60;0.10;;;19.80;99.90;;;;;;4898162;29;20953;-75
2023/09/03 06:47:18;;;;;;;1.63;1.53;;;19.80;99.90;;;;;;4898103;29;20463;-75
2023/09/03 06:49:46;;;;;;;0.60;0.10;;;19.80;99.90;;;;;;4897877;29;20441;-77
2023/09/03 06:52:15;;;;;;;0.60;0.20;;;19.70;99.90;;;;;;4898065;29;20491;-76
2023/09/03 06:54:45;;;;;;;0.60;0.10;;;19.80;99.90;;;;;;4898142;29;20508;-75
2023/09/03 06:57:13;;;;;;;0.60;0.20;;;19.80;99.90;;;;;;4898163;29;20516;-76
2023/09/03 06:59:55;;;;;;;1.10;0.50;;;19.80;99.90;;;;;;4897717;29;20457;-76
2023/09/03 07:02:23;;;;;;;0.70;0.50;;;19.90;99.90;;;;;;4897623;29;21030;-76
2023/09/03 07:04:52;;;;;;;0.60;0.10;;;19.90;99.90;;;;;;4898397;29;20954;-77
2023/09/03 07:07:22;;;;;;;0.60;0.10;;;20.00;99.90;;;;;;4907898;29;20466;-75
2023/09/03 07:09:50;;;;;;;0.60;0.10;;;22.30;99.90;;;;;;4916738;29;20450;-76
2023/09/03 07:12:17;;;;;;;0.60;0.10;;;20.00;99.90;;;;;;4916684;29;20508;-76
2023/09/03 07:14:46;;;;;;;0.60;0.10;;;20.10;99.90;;;;;;4916820;29;20537;-76
2023/09/03 07:17:14;;;;;;;8.23;2.93;;;20.10;99.90;;;;;;4914609;29;20549;-76
2023/09/03 07:19:42;;;;;;;0.70;0.47;;;20.10;99.90;;;;;;4898273;29;20480;-75
2023/09/03 07:22:09;;;;;;;0.60;0.20;;;20.00;99.90;;;;;;4897745;29;21068;-75
2023/09/03 07:24:40;;;;;;;0.60;0.30;;;20.00;99.90;;;;;;4898111;29;20520;-76
2023/09/03 07:27:08;;;;;;;0.60;0.10;;;20.00;99.90;;;;;;4899522;29;20463;-76
2023/09/03 07:29:36;;;;;;;1.67;0.40;;;20.00;99.90;;;;;;4899038;29;20468;-77
2023/09/03 07:32:04;;;;;;;2.20;2.00;;;20.00;99.90;;;;;;4898382;29;20933;-75
2023/09/03 07:34:32;;;;;;;0.60;0.23;;;20.00;99.90;;;;;;4900142;29;20872;-76
2023/09/03 07:37:00;;;;;;;4.43;3.40;;;20.00;99.90;;;;;;4911313;29;20555;-76
2023/09/03 07:39:29;;;;;;;0.60;0.10;;;20.10;99.90;;;;;;4898759;29;20499;-77
2023/09/03 07:41:59;;;;;;;0.60;0.20;;;20.10;99.90;;;;;;4899288;29;20491;-77
2023/09/03 07:44:27;;;;;;;0.60;0.13;;;20.10;99.90;;;;;;4898238;29;20556;-75
2023/09/03 07:46:55;;;;;;;2.50;2.30;;;20.20;99.90;;;;;;4897562;29;20458;-76
2023/09/03 07:49:23;;;;;;;0.60;0.30;;;20.20;99.90;;;;;;4897954;29;20492;-76
2023/09/03 07:51:51;;;;;;;0.60;0.10;;;20.30;99.90;;;;;;4901194;29;20452;-78
2023/09/03 07:54:20;;;;;;;0.60;0.10;;;20.40;99.90;;;;;;4910684;29;20989;-76
2023/09/03 07:56:48;;;;;;;0.60;0.20;;;20.40;99.90;;;;;;4909086;29;20446;-77
2023/09/03 07:59:17;;;;;;;0.60;0.20;;;20.50;99.90;;;;;;4908671;29;20544;-75
2023/09/03 08:01:46;;;;;;;0.60;0.20;;;20.50;99.90;;;;;;4914026;29;20542;-76
2023/09/03 08:04:14;;;;;;;1.37;1.27;;;;;;;;;;4918254;29;20531;-76
2023/09/03 08:06:43;;;;;;;2.50;1.03;;;20.50;99.90;;;;;;4920620;29;20452;-76
2023/09/03 08:09:11;;;;;;;0.90;0.80;;;20.60;99.90;;;;;;4919582;29;20908;-77
2023/09/03 08:11:39;;;;;;;1.20;1.10;;;20.40;99.90;;;;;;4919551;29;20455;-77
2023/09/03 08:14:07;;;;;;;0.70;0.20;;;20.30;99.90;;;;;;4922314;29;21054;-77
2023/09/03 08:16:37;;;;;;;1.27;1.17;;;20.30;99.90;;;;;;4929677;29;20458;-76
2023/09/03 08:19:05;;;;;;;1.00;0.90;;;;;;;;;;4937497;29;20447;-77
2023/09/03 08:21:33;;;;;;;0.70;0.20;;;20.20;99.90;;;;;;4937789;29;20479;-77
2023/09/03 08:24:01;;;;;;;2.70;1.60;;;20.20;99.90;;;;;;4939215;29;21003;-77
2023/09/03 08:26:29;;;;;;;2.00;1.43;;;20.10;99.90;;;;;;4924487;29;20455;-76
2023/09/03 08:28:57;;;;;;;2.27;2.07;;;;;;;;;;4917356;29;20860;-77
2023/09/03 08:31:25;;;;;;;2.90;1.60;;;20.10;99.90;;;;;;4919156;29;20449;-76
2023/09/03 08:33:56;;;;;;;0.60;0.20;;;20.00;99.90;;;;;;4918322;29;20508;-75
2023/09/03 08:36:24;;;;;;;0.60;0.10;;;20.00;99.90;;;;;;4921197;29;20617;-76
2023/09/03 08:38:53;;;;;;;2.40;2.30;;;19.90;99.90;;;;;;4919517;29;20463;-77
2023/09/03 08:41:23;;;;;;;0.60;0.20;;;20.00;99.90;;;;;;4920876;29;20486;-77
2023/09/03 08:43:55;;;;;;;1.70;1.27;;;19.80;99.90;;;;;;4923064;29;20482;-77
2023/09/03 08:46:26;;;;;;;0.80;0.30;;;19.80;99.90;;;;;;4915434;29;20523;-76
2023/09/03 08:48:55;;;;;;;1.70;1.60;;;19.70;99.90;;;;;;4917329;29;20490;-80
2023/09/03 08:51:25;;;;;;;0.60;0.30;;;19.70;99.90;;;;;;4908246;29;20450;-78
2023/09/03 08:53:55;;;;;;;1.47;1.37;;;19.80;99.90;;;;;;4915387;29;20480;-77
2023/09/03 08:56:24;;;;;;;0.70;0.30;;;19.70;99.90;;;;;;4915069;29;20838;-77
2023/09/03 08:58:51;;;;;;;0.60;0.20;;;19.80;99.90;;;;;;4914823;29;20879;-78
2023/09/03 09:01:21;;;;;;;0.60;0.10;;;19.90;99.90;;;;;;4910788;29;20514;-78
2023/09/03 09:03:51;;;;;;;1.00;0.93;;;20.60;99.90;;;;;;4896827;29;20901;-76
2023/09/03 09:06:21;;;;;;;0.60;0.13;;;20.20;99.90;;;;;;4896193;29;20561;-79
2023/09/03 09:08:50;;;;;;;0.60;0.10;;;20.30;99.90;;;;;;4908224;29;20527;-77
2023/09/03 09:11:19;;;;;;;0.73;0.70;;;20.40;99.90;;;;;;4895306;29;21017;-77
2023/09/03 09:13:56;;;;;;;0.60;0.10;;;20.50;99.90;;;;;;4895032;29;20593;-76
2023/09/03 09:16:24;;;;;;;0.60;0.10;;;20.60;99.90;;;;;;4895778;29;20454;-77
2023/09/03 09:18:52;;;;;;;1.23;0.97;;;20.70;99.90;;;;;;4908149;29;20470;-77
2023/09/03 09:21:22;;;;;;;0.60;0.10;;;20.70;99.90;;;;;;4915423;29;20524;-77
2023/09/03 09:23:50;;;;;;;0.60;0.20;;;20.80;99.90;;;;;;4916287;29;20479;-76
2023/09/03 09:26:21;;;;;;;0.60;0.20;;;20.80;99.90;;;;;;4914710;29;20463;-77
2023/09/03 09:28:59;;;;;;;0.70;0.33;;;;;;;;;;4914769;29;20642;-77
2023/09/03 09:31:29;;;;;;;2.20;1.33;;;;;;;;;;4915185;29;20450;-77
2023/09/03 09:33:58;;;;;;;5.07;1.03;;;20.70;99.90;;;;;;4915975;29;20472;-78
2023/09/03 09:36:30;;;;;;;0.60;0.20;;;;;;;;;;4904293;29;20452;-77
2023/09/03 09:39:06;;;;;;;1.00;0.50;;;20.60;99.90;;;;;;4915292;29;20455;-78
2023/09/03 09:41:37;;;;;;;0.73;0.73;;;20.80;99.90;;;;;;4916710;29;20505;-81
2023/09/03 09:44:10;;;;;;;0.60;0.10;;;20.80;99.90;;;;;;4913167;29;20488;-80
2023/09/03 09:46:39;;;;;;;32.80;29.20;;;20.90;99.90;;;;;;4928343;29;20475;-80
2023/09/03 09:49:08;;;;;;;1.40;1.30;;;21.00;99.90;;;;;;4934776;29;20482;-81
2023/09/03 09:51:37;;;;;;;0.90;0.57;;;21.00;99.90;;;;;;4926799;29;20507;-79
2023/09/03 09:54:05;;;;;;;0.60;0.20;;;21.20;99.90;;;;;;4916756;29;20503;-80
2023/09/03 09:56:35;;;;;;;0.67;0.30;;;21.20;99.90;;;;;;4915126;29;20461;-79
2023/09/03 09:59:04;;;;;;;3.90;0.63;;;;;;;;;;4912644;29;20481;-79
2023/09/03 10:01:47;;;;;;;0.60;0.20;;;21.40;99.90;;;;;;4914000;29;20449;-80
2023/09/03 10:04:42;;;;;;;0.70;0.33;;;;;;;;;;4910063;29;20528;-79
2023/09/03 10:07:12;;;;;;;0.60;0.17;;;21.60;99.90;;;;;;4915916;29;20466;-80
2023/09/03 10:09:41;;;;;;;0.70;0.40;;;21.60;99.90;;;;;;4930728;29;20523;-81
2023/09/03 10:12:10;;;;;;;0.60;0.20;;;21.70;99.90;;;;;;4931479;29;20945;-81
2023/09/03 10:14:39;;;;;;;0.60;0.20;;;21.70;99.90;;;;;;4911672;29;20484;-80
2023/09/03 10:17:08;;;;;;;1.17;0.90;;;21.70;99.90;;;;;;4918185;29;20467;-81
2023/09/03 10:19:42;;;;;;;0.87;0.50;;;21.70;99.90;;;;;;4928928;29;20539;-80
2023/09/03 10:22:15;;;;;;;1.13;1.03;;;21.80;99.90;;;;;;4924347;29;20509;-78
2023/09/03 10:24:47;;;;;;;22.23;12.07;;;21.80;99.90;;;;;;4926103;29;20482;-78
2023/09/03 10:27:20;;;;;;;0.70;0.10;;;21.80;99.90;;;;;;4917518;29;20937;-78
2023/09/03 10:29:50;;;;;;;0.60;0.20;;;21.80;99.90;;;;;;4918536;29;20631;-77
2023/09/03 10:32:19;;;;;;;1.87;1.33;;;21.90;99.90;;;;;;4916499;29;20894;-78
2023/09/03 10:34:47;;;;;;;0.80;0.40;;;21.90;99.90;;;;;;4917383;29;20471;-76
2023/09/03 10:37:17;;;;;;;2.10;1.70;;;22.00;99.90;;;;;;4918375;29;20444;-77
2023/09/03 10:39:45;;;;;;;0.60;0.10;;;22.00;99.90;;;;;;4917794;29;20456;-77
2023/09/03 10:42:30;;;;;;;0.60;0.20;;;22.00;99.90;;;;;;4915625;29;20491;-77
2023/09/03 10:44:58;;;;;;;0.60;0.10;;;22.10;99.90;;;;;;4898388;29;20568;-77
2023/09/03 10:47:27;;;;;;;0.70;0.30;;;22.10;99.90;;;;;;4898341;29;20561;-77
2023/09/03 10:49:56;;;;;;;0.60;0.10;;;22.10;99.90;;;;;;4898228;29;20449;-78
2023/09/03 10:52:37;;;;;;;0.60;0.10;;;;;;;;;;4911209;29;20603;-77
2023/09/03 10:55:16;;;;;;;0.60;0.20;;;22.30;99.90;;;;;;4913018;29;20794;-77
2023/09/03 10:57:45;;;;;;;0.77;0.40;;;22.40;99.90;;;;;;4916361;29;20764;-77
2023/09/03 11:00:20;;;;;;;0.60;0.10;;;22.40;99.90;;;;;;4921265;29;20544;-77
2023/09/03 11:02:50;;;;;;;0.80;0.40;;;23.10;99.90;;;;;;4902505;29;20552;-78
2023/09/03 11:05:32;;;;;;;0.60;0.20;;;22.50;99.90;;;;;;4908817;29;20468;-78
2023/09/03 11:08:29;;;;;;;0.60;0.20;;;22.40;99.90;;;;;;4917317;29;20769;-77
2023/09/03 11:10:57;;;;;;;0.60;0.10;;;22.50;99.90;;;;;;4917350;29;20452;-78
2023/09/03 11:13:26;;;;;;;0.60;0.20;;;22.50;99.90;;;;;;4914992;29;20513;-77
2023/09/03 11:16:06;;;;;;;10.07;1.37;;;22.50;99.90;;;;;;4900387;29;20480;-78
2023/09/03 11:18:34;;;;;;;0.60;0.10;;;22.60;99.90;;;;;;4914887;29;20465;-77
2023/09/03 11:21:02;;;;;;;1.20;0.70;;;22.60;99.90;;;;;;4908692;29;20449;-78
2023/09/03 11:23:32;;;;;;;0.60;0.20;;;22.60;99.90;;;;;;4914486;29;20543;-78
2023/09/03 11:26:05;;;;;;;1.10;0.57;;;22.60;99.90;;;;;;4931179;29;20448;-78
2023/09/03 11:28:36;;;;;;;1.10;0.40;;;22.80;99.90;;;;;;4917918;29;20871;-78
2023/09/03 11:31:04;;;;;;;0.93;0.73;;;22.70;99.90;;;;;;4917475;29;20503;-78
2023/09/03 11:33:32;;;;;;;0.60;0.20;;;22.70;99.90;;;;;;4918090;29;20560;-77
2023/09/03 11:36:01;;;;;;;0.70;0.30;;;22.70;99.90;;;;;;4915856;29;20480;-77
2023/09/03 11:38:36;;;;;;;0.70;0.30;;;22.60;99.90;;;;;;4917252;29;20452;-78
2023/09/03 11:41:07;;;;;;;0.60;0.20;;;22.60;99.90;;;;;;4914079;29;20498;-77
2023/09/03 11:43:37;;;;;;;0.60;0.20;;;22.80;99.90;;;;;;4919307;29;20511;-78
2023/09/03 11:46:13;;;;;;;0.60;0.10;;;22.80;99.90;;;;;;4918126;29;20540;-78
2023/09/03 11:48:42;;;;;;;0.60;0.10;;;22.80;99.90;;;;;;4917199;29;20452;-77
2023/09/03 11:51:10;;;;;;;0.93;0.67;;;22.90;99.90;;;;;;4908203;29;20639;-78
2023/09/03 11:53:43;;;;;;;0.60;0.10;;;23.10;99.90;;;;;;4898078;29;20478;-78
2023/09/03 11:56:24;;;;;;;0.80;0.53;;;23.10;99.90;;;;;;4898000;29;20520;-77
2023/09/03 11:59:04;;;;;;;0.60;0.10;;;23.10;99.90;;;;;;4899126;29;20552;-77
2023/09/03 12:01:32;;;;;;;0.60;0.20;;;23.20;99.90;;;;;;4908166;29;20539;-77
2023/09/03 12:04:04;;;;;;;1.00;0.60;;;23.30;99.90;;;;;;4916127;29;20990;-76
2023/09/03 12:06:36;;;;;;;0.60;0.20;;;;;;;;;;4916553;29;20468;-77
2023/09/03 12:09:05;;;;;;;0.70;0.30;;;23.30;99.90;;;;;;4916414;29;20547;-79
2023/09/03 12:11:33;;;;;;;0.60;0.20;;;23.30;99.90;;;;;;4917052;29;20467;-78
2023/09/03 12:14:01;;;;;;;0.60;0.20;;;23.30;99.90;;;;;;4921749;29;20479;-79
2023/09/03 12:16:46;;;;;;;0.60;0.20;;;23.40;99.90;;;;;;4935740;29;20459;-78
2023/09/03 12:19:16;;;;;;;0.60;0.20;;;23.50;99.90;;;;;;4931026;29;20456;-77
2023/09/03 12:21:44;;;;;;;0.80;0.40;;;23.50;99.90;;;;;;4915119;29;20462;-78
2023/09/03 12:24:16;;;;;;;0.60;0.20;;;;;;;;;;4923561;29;20503;-78
2023/09/03 12:26:44;;;;;;;0.60;0.20;;;23.60;99.90;;;;;;4935606;29;20964;-78
2023/09/03 12:29:22;;;;;;;0.60;0.10;;;23.70;99.90;;;;;;4934454;29;20458;-77
2023/09/03 12:31:58;;;;;;;0.60;0.10;;;23.80;99.90;;;;;;4922000;29;20535;-76
2023/09/03 12:34:34;;;;;;;0.60;0.10;;;23.80;99.90;;;;;;4916579;29;20562;-78
2023/09/03 12:37:03;;;;;;;0.60;0.20;;;23.90;99.90;;;;;;4916047;29;20448;-78
2023/09/03 12:39:33;;;;;;;0.60;0.10;;;24.00;99.90;;;;;;4909738;29;20456;-77
2023/09/03 12:42:03;;;;;;;0.60;0.10;;;24.00;99.90;;;;;;4915446;29;20456;-77
2023/09/03 12:44:31;;;;;;;0.70;0.30;;;24.10;99.90;;;;;;4916137;29;20863;-79
2023/09/03 12:47:02;;;;;;;0.60;0.10;;;24.10;99.90;;;;;;4916236;29;20508;-78
2023/09/03 12:49:30;;;;;;;0.70;0.20;;;24.20;99.90;;;;;;4915433;29;20452;-77
2023/09/03 12:51:59;;;;;;;0.67;0.17;;;24.20;99.90;;;;;;4915468;29;20823;-76
2023/09/03 12:54:27;;;;;;;0.70;0.10;;;24.30;99.90;;;;;;4915898;29;20475;-78
2023/09/03 12:56:57;;;;;;;0.60;0.10;;;24.40;99.90;;;;;;4916188;29;20539;-77
2023/09/03 12:59:25;;;;;;;0.67;0.10;;;24.40;99.90;;;;;;4910276;29;20457;-78
2023/09/03 13:02:00;;;;;;;0.70;0.20;;;24.40;99.90;;;;;;4898381;29;20552;-78
2023/09/03 13:04:33;;;;;;;1.33;1.23;;;24.30;99.90;;;;;;4902868;29;20499;-78
2023/09/03 13:07:01;;;;;;;0.70;0.20;;;24.30;99.90;;;;;;4899856;29;20485;-78
2023/09/03 13:09:31;;;;;;;0.70;0.20;;;;;;;;;;4973635;23;20500;-76
2023/09/03 13:12:00;;;;;;;0.70;0.10;;;24.00;99.90;;;;;;4915036;29;20477;-74
2023/09/03 13:14:29;;;;;;;0.70;0.20;;;;;;;;;;4916193;29;20436;-73
2023/09/03 13:16:57;;;;;;;0.60;0.13;;;24.10;99.90;;;;;;4919521;29;20448;-73
2023/09/03 13:19:25;;;;;;;1.27;1.13;;;24.10;99.90;;;;;;4904547;29;20473;-75
2023/09/03 13:21:53;;;;;;;0.60;0.20;;;;;;;;;;4893531;29;20485;-73
2023/09/03 13:24:21;;;;;;;0.70;0.30;;;24.20;94.40;;;;;;4896055;29;20476;-74
2023/09/03 13:26:51;;;;;;;0.60;0.20;;;24.10;99.90;;;;;;4895861;29;20437;-73
2023/09/03 13:29:20;;;;;;;0.70;0.20;;;24.20;90.60;;;;;;4895933;29;20473;-73
2023/09/03 13:31:48;;;;;;;0.70;0.10;;;24.30;90.50;;;;;;4896847;29;20469;-74
2023/09/03 13:34:16;;;;;;;0.70;0.10;;;24.40;90.90;;;;;;4897661;29;21013;-74
2023/09/03 13:36:44;;;;;;;0.60;0.10;;;24.40;94.40;;;;;;4896517;29;20493;-74
2023/09/03 13:39:15;;;;;;;0.60;0.10;;;24.40;95.30;;;;;;4895863;29;20504;-74
2023/09/03 13:41:43;;;;;;;0.70;0.10;;;24.40;99.90;;;;;;4895561;29;20449;-74
2023/09/03 13:44:12;;;;;;;0.70;0.20;;;24.40;94.90;;;;;;4895562;29;20527;-74
2023/09/03 13:46:41;;;;;;;0.67;0.20;;;24.50;93.60;;;;;;4896142;29;20492;-75
2023/09/03 13:49:09;;;;;;;0.63;0.20;;;24.40;92.00;;;;;;4895732;29;20473;-74
2023/09/03 13:51:39;;;;;;;0.60;0.10;;;;;;;;;;4895587;29;20488;-75
2023/09/03 13:54:07;;;;;;;0.60;0.10;;;24.20;92.60;;;;;;4890306;29;20541;-74
2023/09/03 13:56:35;;;;;;;0.60;0.10;;;24.20;91.00;;;;;;4894107;29;20537;-74
2023/09/03 13:59:04;;;;;;;0.70;0.10;;;;;;;;;;4895869;29;20994;-74
2023/09/03 14:01:32;;;;;;;0.70;0.10;;;;;;;;;;4895736;29;20496;-74
2023/09/03 14:04:02;;;;;;;0.70;0.20;;;;;;;;;;4895824;29;20489;-75
2023/09/03 14:06:30;;;;;;;0.67;0.10;;;24.40;88.60;;;;;;4893193;29;21202;-75
2023/09/03 14:08:58;;;;;;;0.70;0.10;;;24.40;91.20;;;;;;4895796;29;20580;-75
2023/09/03 14:11:26;;;;;;;0.60;0.10;;;;;;;;;;4894746;29;20434;-73
2023/09/03 14:13:55;;;;;;;0.67;0.17;;;;;;;;;;4895249;29;20461;-76
2023/09/03 14:16:23;;;;;;;0.73;0.37;;;24.50;91.20;;;;;;4895889;29;20516;-74
2023/09/03 14:18:54;;;;;;;0.60;0.20;;;24.40;87.80;;;;;;4895885;29;20475;-74
2023/09/03 14:21:23;;;;;;;0.70;0.10;;;24.40;90.10;;;;;;4895997;29;20808;-75
2023/09/03 14:23:51;;;;;;;0.60;0.10;;;24.40;83.90;;;;;;4892563;29;20497;-74
2023/09/03 14:26:19;;;;;;;0.67;0.17;;;24.40;83.80;;;;;;4893892;29;20445;-75
2023/09/03 14:28:50;;;;;;;0.60;0.10;;;24.50;86.20;;;;;;4895869;29;21049;-74
2023/09/03 14:31:19;;;;;;;0.70;0.30;;;;;;;;;;4888321;29;20442;-76
2023/09/03 14:33:50;;;;;;;0.70;0.10;;;24.00;84.30;;;;;;4899858;29;20453;-75
2023/09/03 14:36:18;;;;;;;0.63;0.20;;;24.40;87.50;;;;;;4899394;29;20455;-74
2023/09/03 14:38:47;;;;;;;0.70;0.20;;;24.30;88.60;;;;;;4900120;29;20520;-74
2023/09/03 14:41:18;;;;;;;0.70;0.20;;;24.30;90.20;;;;;;4899391;29;20447;-74
2023/09/03 14:43:47;;;;;;;0.67;0.10;;;;;;;;;;4899963;29;20489;-74
2023/09/03 14:46:15;;;;;;;0.70;0.10;;;24.40;90.30;;;;;;4900018;29;20485;-74
2023/09/03 14:48:43;;;;;;;0.90;0.23;;;24.40;83.00;;;;;;4899926;29;20508;-75
2023/09/03 14:51:13;;;;;;;0.67;0.20;;;24.40;83.20;;;;;;4898579;29;20453;-75
2023/09/03 14:53:42;;;;;;;1.53;0.30;;;;;;;;;;4899077;29;20453;-76
2023/09/03 14:56:14;;;;;;;0.70;0.43;;;24.50;87.60;;;;;;4898706;29;20513;-74
2023/09/03 14:58:42;;;;;;;0.60;0.20;;;24.50;86.00;;;;;;4898637;29;20473;-74
2023/09/03 15:01:14;;;;;;;0.70;0.20;;;24.40;85.60;;;;;;4899210;29;20652;-75
2023/09/03 15:03:42;;;;;;;0.60;0.13;;;;;;;;;;4899569;29;20442;-74
2023/09/03 15:06:10;;;;;;;0.70;0.10;;;24.40;90.10;;;;;;4893770;29;20497;-74
2023/09/03 15:08:39;;;;;;;1.03;0.43;;;;;;;;;;4897353;29;20511;-75
2023/09/03 15:11:15;;;;;;;0.73;0.33;;;24.40;86.80;;;;;;4898080;29;20485;-75
2023/09/03 15:13:45;;;;;;;0.70;0.10;;;24.50;90.50;;;;;;4898351;29;20989;-75
2023/09/03 15:16:13;;;;;;;0.70;0.13;;;24.50;90.90;;;;;;4898279;29;20943;-74
2023/09/03 15:18:41;;;;;;;0.67;0.10;;;24.60;93.30;;;;;;4898094;29;20869;-73
2023/09/03 15:21:09;;;;;;;1.27;0.67;;;24.60;91.20;;;;;;4879593;29;20446;-74